Time;durP1;ratioP1;P1;durP2;ratioP2;P2;SDS_P1;SDS_P2;PMS_P1;PMS_P2;Temp;Humidity;BMP_temperature;BMP_pressure;BME280_temperature;BME280_humidity;BME280_pressure;Samples;Min_cycle;Max_cycle;Signal;HPM_P1;HPM_P2
2022/05/25 00:00:01;;;;;;;9.38;5.15;;;;;;;;;;5078993;28;20084;-71
2022/05/25 00:02:27;;;;;;;8.70;5.13;;;;;;;;;;5069817;28;20110;-74
2022/05/25 00:04:54;;;;;;;8.50;4.55;;;;;;;;;;5081472;28;20130;-71
2022/05/25 00:07:21;;;;;;;10.00;5.65;;;;;;;;;;5080656;28;20056;-73
2022/05/25 00:09:49;;;;;;;9.90;5.28;;;;;;;;;;5078324;28;20049;-73
2022/05/25 00:12:17;;;;;;;10.60;5.60;;;;;;;;;;5075235;28;20904;-72
2022/05/25 00:14:43;;;;;;;8.27;4.90;;;;;;;;;;5079536;28;20139;-73
2022/05/25 00:17:09;;;;;;;10.23;5.40;;;;;;;;;;5080817;28;20057;-73
2022/05/25 00:22:21;;;;;;;9.82;4.93;;;;;;;;;;5075571;28;20128;-71
2022/05/25 00:24:47;;;;;;;9.70;5.18;;;;;;;;;;5062923;28;20052;-72
2022/05/25 00:27:13;;;;;;;12.60;5.07;;;;;;;;;;5081047;28;20057;-73
2022/05/25 00:29:40;;;;;;;9.65;5.50;;;;;;;;;;5080351;28;20052;-73
2022/05/25 00:32:07;;;;;;;10.68;5.43;;;;;;;;;;5073121;28;20167;-74
2022/05/25 00:34:33;;;;;;;10.65;5.63;;;;;;;;;;5067709;28;20059;-74
2022/05/25 00:36:59;;;;;;;11.90;5.97;;;;;;;;;;5046289;28;20115;-72
2022/05/25 00:39:26;;;;;;;10.73;5.72;;;;;;;;;;5074084;28;20056;-73
2022/05/25 00:41:53;;;;;;;9.25;5.30;;;;;;;;;;5077927;28;20053;-73
2022/05/25 00:44:19;;;;;;;10.23;5.57;;;;;;;;;;5080702;28;22011;-73
2022/05/25 00:46:46;;;;;;;9.65;5.50;;;;;;;;;;5078489;28;20082;-72
2022/05/25 00:49:17;;;;;;;9.73;5.70;;;;;;;;;;5079353;28;20119;-71
2022/05/25 00:51:48;;;;;;;9.25;5.78;;;;;;;;;;5073148;28;20052;-73
2022/05/25 00:54:21;;;;;;;10.80;6.05;;;;;;;;;;5075302;28;20888;-72
2022/05/25 00:56:50;;;;;;;9.68;5.97;;;;;;;;;;5081898;28;20501;-73
2022/05/25 00:59:18;;;;;;;11.23;6.55;;;;;;;;;;5070146;28;20060;-73
2022/05/25 01:01:44;;;;;;;10.93;6.55;;;;;;;;;;5077498;28;20136;-73
2022/05/25 01:04:11;;;;;;;10.15;6.13;;;;;;;;;;5081212;28;20083;-71
2022/05/25 01:06:56;;;;;;;11.75;5.95;;;;;;;;;;5076242;28;20516;-73
2022/05/25 01:09:23;;;;;;;12.23;6.50;;;;;;;;;;5073866;28;20052;-72
2022/05/25 01:12:01;;;;;;;12.00;6.10;;;;;;;;;;5068529;28;20052;-72
2022/05/25 01:14:34;;;;;;;11.07;5.93;;;;;;;;;;5083678;28;20056;-72
2022/05/25 01:17:10;;;;;;;12.50;6.68;;;;;;;;;;5061508;28;20132;-72
2022/05/25 01:19:55;;;;;;;12.13;6.35;;;;;;;;;;5080210;28;20055;-73
2022/05/25 01:22:34;;;;;;;12.75;6.72;;;;;;;;;;5084417;28;20064;-73
2022/05/25 01:25:01;;;;;;;13.32;7.00;;;;;;;;;;5078014;28;20052;-72
2022/05/25 01:27:36;;;;;;;12.32;6.50;;;;;;;;;;5076775;28;20059;-74
2022/05/25 01:30:04;;;;;;;13.52;6.18;;;;;;;;;;5076609;28;20051;-72
2022/05/25 01:32:51;;;;;;;10.63;6.43;;;;;;;;;;5079099;28;20394;-73
2022/05/25 01:35:20;;;;;;;12.07;6.22;;;;;;;;;;5065071;28;20063;-74
2022/05/25 01:38:04;;;;;;;15.30;6.22;;;;;;;;;;5066863;28;20990;-71
2022/05/25 01:40:35;;;;;;;13.55;6.65;;;;;;;;;;5084900;28;20170;-73
2022/05/25 01:43:13;;;;;;;11.63;7.00;;;;;;;;;;5078923;28;20132;-73
2022/05/25 01:45:43;;;;;;;13.48;6.97;;;;;;;;;;5069711;28;20053;-73
2022/05/25 01:48:10;;;;;;;14.48;7.43;;;;;;;;;;5081532;28;20061;-71
2022/05/25 01:51:00;;;;;;;12.52;6.57;;;;;;;;;;5075961;28;20076;-73
2022/05/25 01:53:32;;;;;;;12.25;6.60;;;;;;;;;;5068268;28;20052;-73
2022/05/25 01:56:02;;;;;;;13.57;7.28;;;;;;;;;;5067633;28;20136;-72
2022/05/25 01:58:30;;;;;;;12.77;6.72;;;;;;;;;;5063684;28;20738;-72
2022/05/25 02:00:58;;;;;;;11.95;6.57;;;;;;;;;;5076694;28;20055;-73
2022/05/25 02:06:12;;;;;;;13.60;7.40;;;;;;;;;;5076790;28;20052;-73
2022/05/25 02:08:42;;;;;;;12.50;7.13;;;;;;;;;;5078989;28;20053;-72
2022/05/25 02:11:23;;;;;;;13.75;6.68;;;;;;;;;;5079566;28;20044;-73
2022/05/25 02:14:17;;;;;;;16.98;8.02;;;;;;;;;;5071152;28;20504;-73
2022/05/25 02:17:17;;;;;;;14.93;7.40;;;;;;;;;;5073414;28;20501;-73
2022/05/25 02:19:55;;;;;;;14.40;6.88;;;;;;;;;;5013584;28;20619;-73
2022/05/25 02:22:37;;;;;;;16.02;7.88;;;;;;;;;;5077787;28;20076;-73
2022/05/25 02:25:12;;;;;;;13.23;7.35;;;;;;;;;;5071418;28;20148;-71
2022/05/25 02:27:41;;;;;;;15.70;7.30;;;;;;;;;;5053681;28;20044;-72
2022/05/25 02:30:13;;;;;;;12.73;7.28;;;;;;;;;;5073679;28;20052;-72
2022/05/25 02:32:51;;;;;;;17.33;7.43;;;;;;;;;;5074619;28;20138;-73
2022/05/25 02:35:17;;;;;;;13.40;7.90;;;;;;;;;;5070601;28;20481;-74
2022/05/25 02:37:44;;;;;;;12.77;7.40;;;;;;;;;;5075443;28;20058;-72
2022/05/25 02:40:11;;;;;;;14.68;8.10;;;;;;;;;;5080553;28;20136;-72
2022/05/25 02:42:38;;;;;;;16.33;8.38;;;;;;;;;;5075391;28;20135;-73
2022/05/25 02:45:05;;;;;;;14.43;8.15;;;;;;;;;;5056117;28;20881;-73
2022/05/25 02:47:32;;;;;;;18.10;8.40;;;;;;;;;;5070884;28;20052;-72
2022/05/25 02:50:01;;;;;;;18.25;8.48;;;;;;;;;;5074544;28;20049;-73
2022/05/25 02:52:27;;;;;;;17.92;8.38;;;;;;;;;;5076745;28;20078;-72
2022/05/25 02:54:53;;;;;;;17.60;8.73;;;;;;;;;;5082823;28;20052;-73
2022/05/25 02:57:20;;;;;;;17.08;8.68;;;;;;;;;;5078499;28;20579;-73
2022/05/25 02:59:46;;;;;;;16.05;8.48;;;;;;;;;;5075194;28;20842;-73
2022/05/25 03:02:13;;;;;;;16.80;9.25;;;;;;;;;;5067398;28;20555;-73
2022/05/25 03:04:40;;;;;;;15.32;9.20;;;;;;;;;;5073340;28;20055;-73
2022/05/25 03:07:07;;;;;;;17.73;9.00;;;;;;;;;;5077123;28;20499;-73
2022/05/25 03:09:35;;;;;;;14.73;8.52;;;;;;;;;;5083732;28;20518;-72
2022/05/25 03:12:02;;;;;;;14.88;8.18;;;;;;;;;;5082231;28;20083;-73
2022/05/25 03:14:29;;;;;;;19.40;10.07;;;;;;;;;;5075682;28;20052;-73
2022/05/25 03:16:55;;;;;;;17.02;8.55;;;;;;;;;;5058942;28;20799;-72
2022/05/25 03:19:22;;;;;;;14.20;8.68;;;;;;;;;;5082797;28;20060;-71
2022/05/25 03:21:48;;;;;;;16.42;8.35;;;;;;;;;;5074410;28;20068;-71
2022/05/25 03:24:15;;;;;;;16.55;8.15;;;;;;;;;;5075365;28;20057;-73
2022/05/25 03:26:41;;;;;;;18.17;8.98;;;;;;;;;;5077918;28;20055;-73
2022/05/25 03:29:08;;;;;;;14.60;8.80;;;;;;;;;;5059342;28;20045;-73
2022/05/25 03:31:34;;;;;;;15.70;8.65;;;;;;;;;;5056181;28;20094;-72
2022/05/25 03:34:00;;;;;;;19.65;8.48;;;;;;;;;;5073354;28;21014;-72
2022/05/25 03:36:27;;;;;;;16.50;8.48;;;;;;;;;;5067986;28;20149;-71
2022/05/25 03:38:53;;;;;;;20.65;9.13;;;;;;;;;;5082231;28;20554;-72
2022/05/25 03:41:20;;;;;;;18.70;10.00;;;;;;;;;;5076725;28;20052;-72
2022/05/25 03:43:47;;;;;;;16.92;9.35;;;;;;;;;;5077091;28;20439;-73
2022/05/25 03:46:14;;;;;;;18.58;8.90;;;;;;;;;;5071957;28;20296;-72
2022/05/25 03:48:40;;;;;;;20.20;9.60;;;;;;;;;;5074343;28;20176;-73
2022/05/25 03:51:07;;;;;;;15.25;8.90;;;;;;;;;;5073157;28;20512;-73
2022/05/25 03:53:33;;;;;;;17.50;8.55;;;;;;;;;;5081273;28;20546;-73
2022/05/25 03:56:00;;;;;;;15.02;8.80;;;;;;;;;;5080495;28;20055;-73
2022/05/25 03:58:26;;;;;;;18.13;9.25;;;;;;;;;;5064419;28;20058;-72
2022/05/25 04:00:52;;;;;;;13.45;8.15;;;;;;;;;;5077507;28;20135;-73
2022/05/25 04:03:21;;;;;;;18.92;9.23;;;;;;;;;;5062504;28;20063;-72
2022/05/25 04:05:47;;;;;;;17.30;8.98;;;;;;;;;;5083239;28;20060;-73
2022/05/25 04:08:13;;;;;;;22.58;8.80;;;;;;;;;;5076710;28;20547;-73
2022/05/25 04:10:40;;;;;;;15.85;8.13;;;;;;;;;;5070868;28;20902;-72
2022/05/25 04:13:07;;;;;;;16.13;9.18;;;;;;;;;;5082672;28;20055;-74
2022/05/25 04:15:34;;;;;;;17.05;8.57;;;;;;;;;;5081879;28;20058;-73
2022/05/25 04:18:01;;;;;;;17.35;8.85;;;;;;;;;;5082555;28;20080;-73
2022/05/25 04:20:28;;;;;;;16.52;8.40;;;;;;;;;;5075739;28;20048;-74
2022/05/25 04:22:54;;;;;;;14.98;8.57;;;;;;;;;;5061887;28;20057;-73
2022/05/25 04:25:22;;;;;;;19.75;9.48;;;;;;;;;;5070796;28;20053;-73
2022/05/25 04:27:50;;;;;;;20.52;8.98;;;;;;;;;;5074868;28;20052;-73
2022/05/25 04:30:18;;;;;;;19.55;9.43;;;;;;;;;;5083488;28;20057;-73
2022/05/25 04:32:45;;;;;;;21.90;10.05;;;;;;;;;;5069819;28;20100;-72
2022/05/25 04:35:12;;;;;;;18.88;9.55;;;;;;;;;;5051765;28;20608;-73
2022/05/25 04:37:54;;;;;;;17.70;10.05;;;;;;;;;;5081385;28;20544;-72
2022/05/25 04:40:29;;;;;;;22.33;9.88;;;;;;;;;;5074832;28;20060;-73
2022/05/25 04:42:56;;;;;;;19.85;10.77;;;;;;;;;;5074745;28;20714;-73
2022/05/25 04:45:25;;;;;;;21.90;10.15;;;;;;;;;;5063732;28;20107;-72
2022/05/25 04:47:53;;;;;;;21.83;10.75;;;;;;;;;;5066928;28;20154;-73
2022/05/25 04:50:21;;;;;;;20.75;11.75;;;;;;;;;;5084594;28;20060;-72
2022/05/25 04:52:47;;;;;;;21.85;10.77;;;;;;;;;;5083884;28;20606;-72
2022/05/25 04:58:01;;;;;;;19.60;11.23;;;;;;;;;;5064160;28;20088;-72
2022/05/25 05:00:27;;;;;;;17.75;11.60;;;;;;;;;;5084417;28;20554;-73
2022/05/25 05:02:53;;;;;;;19.85;11.52;;;;;;;;;;5081336;28;20076;-71
2022/05/25 05:05:20;;;;;;;22.60;12.32;;;;;;;;;;5073536;28;20111;-72
2022/05/25 05:07:47;;;;;;;19.65;11.82;;;;;;;;;;5077018;28;20147;-72
2022/05/25 05:10:13;;;;;;;21.17;11.50;;;;;;;;;;5075310;28;20146;-73
2022/05/25 05:12:40;;;;;;;22.67;12.05;;;;;;;;;;5080171;28;20055;-73
2022/05/25 05:15:06;;;;;;;21.52;12.23;;;;;;;;;;5080764;28;20087;-73
2022/05/25 05:17:33;;;;;;;20.65;12.27;;;;;;;;;;5069141;28;20053;-73
2022/05/25 05:19:59;;;;;;;25.15;13.43;;;;;;;;;;5081376;28;20059;-73
2022/05/25 05:22:25;;;;;;;22.70;13.38;;;;;;;;;;5084445;28;20056;-72
2022/05/25 05:24:52;;;;;;;24.02;12.75;;;;;;;;;;5076308;28;20080;-72
2022/05/25 05:27:18;;;;;;;25.25;12.32;;;;;;;;;;5066564;28;20099;-73
2022/05/25 05:29:45;;;;;;;22.83;13.43;;;;;;;;;;5074892;28;20132;-73
2022/05/25 05:32:12;;;;;;;23.48;13.55;;;;;;;;;;5072782;28;20079;-73
2022/05/25 05:34:39;;;;;;;22.27;12.98;;;;;;;;;;5076933;28;20048;-72
2022/05/25 05:37:12;;;;;;;22.23;13.30;;;;;;;;;;5082922;28;20053;-72
2022/05/25 05:39:43;;;;;;;22.90;11.77;;;;;;;;;;5076983;28;20048;-72
2022/05/25 05:42:12;;;;;;;18.67;10.85;;;;;;;;;;5083800;28;20056;-73
2022/05/25 05:44:40;;;;;;;22.98;11.13;;;;;;;;;;5082033;28;20059;-73
2022/05/25 05:47:08;;;;;;;18.65;11.13;;;;;;;;;;5083665;28;20570;-73
2022/05/25 05:49:36;;;;;;;17.15;10.10;;;;;;;;;;5078585;28;20055;-73
2022/05/25 05:52:02;;;;;;;20.88;9.82;;;;;;;;;;5076287;28;20136;-73
2022/05/25 05:54:29;;;;;;;14.85;9.90;;;;;;;;;;5080926;28;20048;-76
2022/05/25 05:56:55;;;;;;;17.90;9.38;;;;;;;;;;5083514;28;20539;-73
2022/05/25 05:59:22;;;;;;;15.30;9.05;;;;;;;;;;5055228;28;20084;-74
2022/05/25 06:01:48;;;;;;;18.23;9.40;;;;;;;;;;5083630;28;20135;-73
2022/05/25 06:04:15;;;;;;;17.23;8.95;;;;;;;;;;5082489;28;20060;-72
2022/05/25 06:06:42;;;;;;;17.20;8.77;;;;;;;;;;5080862;28;20539;-74
2022/05/25 06:09:08;;;;;;;15.00;8.68;;;;;;;;;;5082212;28;20147;-74
2022/05/25 06:11:38;;;;;;;14.77;8.43;;;;;;;;;;5080203;28;20144;-73
2022/05/25 06:14:04;;;;;;;19.35;8.45;;;;;;;;;;5057108;28;20136;-73
2022/05/25 06:19:33;;;;;;;14.90;8.80;;;;;;;;;;5077909;28;20056;-74
2022/05/25 06:22:01;;;;;;;15.40;8.95;;;;;;;;;;5073148;28;20049;-73
2022/05/25 06:24:29;;;;;;;15.05;8.18;;;;;;;;;;5064387;28;20508;-74
2022/05/25 06:26:55;;;;;;;14.63;8.35;;;;;;;;;;5072538;28;20045;-73
2022/05/25 06:29:22;;;;;;;13.65;7.68;;;;;;;;;;5080218;28;20138;-73
2022/05/25 06:31:48;;;;;;;16.23;8.30;;;;;;;;;;5081362;28;20063;-74
2022/05/25 06:34:15;;;;;;;13.77;7.63;;;;;;;;;;5057764;28;20497;-74
2022/05/25 06:36:42;;;;;;;15.45;7.80;;;;;;;;;;5081751;28;20048;-74
2022/05/25 06:39:09;;;;;;;15.15;8.10;;;;;;;;;;5063048;28;20102;-73
2022/05/25 06:41:35;;;;;;;14.90;8.10;;;;;;;;;;5080294;28;20707;-74
2022/05/25 06:44:01;;;;;;;16.20;8.05;;;;;;;;;;5080871;28;20044;-74
2022/05/25 06:46:28;;;;;;;18.52;8.50;;;;;;;;;;5079842;28;20106;-74
2022/05/25 06:48:55;;;;;;;15.18;8.07;;;;;;;;;;5082302;28;20088;-74
2022/05/25 06:51:22;;;;;;;13.95;8.20;;;;;;;;;;5057681;28;20564;-73
2022/05/25 06:53:49;;;;;;;18.48;9.35;;;;;;;;;;5064960;28;20254;-74
2022/05/25 06:56:17;;;;;;;14.27;8.07;;;;;;;;;;5077209;28;20102;-73
2022/05/25 06:58:43;;;;;;;13.32;7.95;;;;;;;;;;5070430;28;20048;-73
2022/05/25 07:01:09;;;;;;;17.27;7.68;;;;;;;;;;5074186;28;20056;-73
2022/05/25 07:03:38;;;;;;;15.02;8.10;;;;;;;;;;5071117;28;20084;-74
2022/05/25 07:06:05;;;;;;;14.52;8.52;;;;;;;;;;5080599;28;20057;-73
2022/05/25 07:08:32;;;;;;;15.00;7.65;;;;;;;;;;5075072;28;20055;-74
2022/05/25 07:10:58;;;;;;;13.73;8.18;;;;;;;;;;5076525;28;20060;-74
2022/05/25 07:13:25;;;;;;;14.45;8.60;;;;;;;;;;5081970;28;20084;-74
2022/05/25 07:15:59;;;;;;;13.15;8.25;;;;;;;;;;5064536;28;20550;-74
2022/05/25 07:18:26;;;;;;;13.40;8.80;;;;;;;;;;5071762;28;20080;-74
2022/05/25 07:20:52;;;;;;;16.50;8.68;;;;;;;;;;5058787;28;20056;-74
2022/05/25 07:23:19;;;;;;;15.60;8.73;;;;;;;;;;5073871;28;20153;-73
2022/05/25 07:25:46;;;;;;;18.38;9.32;;;;;;;;;;5076880;28;20044;-74
2022/05/25 07:28:12;;;;;;;15.82;10.20;;;;;;;;;;5083598;28;20139;-74
2022/05/25 07:30:39;;;;;;;15.23;9.75;;;;;;;;;;5053872;28;20055;-74
2022/05/25 07:33:06;;;;;;;13.57;9.68;;;;;;;;;;5057790;28;20497;-73
2022/05/25 07:35:32;;;;;;;15.45;9.50;;;;;;;;;;5064744;28;20055;-74
2022/05/25 07:37:59;;;;;;;14.68;10.55;;;;;;;;;;5057589;28;20049;-74
2022/05/25 07:40:31;;;;;;;13.98;10.02;;;;;;;;;;5053442;28;20427;-74
2022/05/25 07:42:59;;;;;;;14.15;10.38;;;;;;;;;;5062433;28;20154;-74
2022/05/25 07:45:27;;;;;;;15.52;10.63;;;;;;;;;;5080073;28;20554;-73
2022/05/25 07:47:54;;;;;;;16.02;11.05;;;;;;;;;;5078974;28;20129;-74
2022/05/25 07:50:21;;;;;;;16.00;10.38;;;;;;;;;;5073416;28;20139;-73
2022/05/25 07:52:49;;;;;;;16.02;10.07;;;;;;;;;;5081821;28;20507;-74
2022/05/25 07:55:16;;;;;;;15.70;9.48;;;;;;;;;;5077838;28;20580;-74
2022/05/25 07:57:43;;;;;;;13.45;9.48;;;;;;;;;;5048763;28;20088;-74
2022/05/25 08:00:10;;;;;;;12.20;8.55;;;;;;;;;;5077274;28;20661;-74
2022/05/25 08:08:09;;;;;;;16.33;8.82;;;;;;;;;;5071823;28;20060;-74
2022/05/25 08:10:35;;;;;;;12.85;9.02;;;;;;;;;;5068969;28;20185;-74
2022/05/25 08:13:02;;;;;;;12.23;8.63;;;;;;;;;;5051771;28;20055;-74
2022/05/25 08:15:29;;;;;;;17.30;9.35;;;;;;;;;;5070267;28;20588;-74
2022/05/25 08:17:56;;;;;;;13.57;8.77;;;;;;;;;;5064679;28;20057;-73
2022/05/25 08:20:23;;;;;;;15.30;8.82;;;;;;;;;;5073151;28;20138;-74
2022/05/25 08:22:50;;;;;;;15.40;9.45;;;;;;;;;;5073945;28;20083;-73
2022/05/25 08:25:17;;;;;;;15.00;8.80;;;;;;;;;;5071175;28;20139;-73
2022/05/25 08:27:44;;;;;;;14.77;9.43;;;;;;;;;;5074366;28;20056;-74
2022/05/25 08:30:13;;;;;;;14.77;9.32;;;;;;;;;;5082293;28;20059;-74
2022/05/25 08:32:39;;;;;;;13.70;9.75;;;;;;;;;;5076005;28;20800;-74
2022/05/25 08:35:06;;;;;;;17.50;10.02;;;;;;;;;;5076404;28;20055;-73
2022/05/25 08:37:32;;;;;;;18.25;9.48;;;;;;;;;;5080778;28;20106;-74
2022/05/25 08:39:58;;;;;;;15.75;9.88;;;;;;;;;;5070301;28;20053;-74
2022/05/25 08:42:26;;;;;;;17.17;10.15;;;;;;;;;;5079121;28;20056;-74
2022/05/25 08:44:53;;;;;;;16.80;11.27;;;;;;;;;;5070649;28;20084;-74
2022/05/25 08:47:19;;;;;;;16.60;11.48;;;;;;;;;;5076556;28;20048;-74
2022/05/25 08:49:47;;;;;;;18.70;11.07;;;;;;;;;;5081052;28;20565;-74
2022/05/25 08:52:29;;;;;;;17.85;11.55;;;;;;;;;;5064831;28;20052;-74
2022/05/25 08:54:58;;;;;;;14.38;11.00;;;;;;;;;;5078034;28;20131;-75
2022/05/25 08:57:38;;;;;;;18.90;11.90;;;;;;;;;;5080279;28;20052;-74
2022/05/25 09:00:09;;;;;;;16.50;11.10;;;;;;;;;;5068114;28;20051;-73
2022/05/25 09:02:59;;;;;;;16.92;11.60;;;;;;;;;;5068398;28;20051;-73
2022/05/25 09:05:29;;;;;;;16.00;11.88;;;;;;;;;;5061451;28;20087;-74
2022/05/25 09:08:14;;;;;;;18.98;12.50;;;;;;;;;;5064815;28;20195;-74
2022/05/25 09:10:43;;;;;;;17.05;11.75;;;;;;;;;;5050480;28;20161;-74
2022/05/25 09:13:14;;;;;;;15.32;11.50;;;;;;;;;;5075872;28;20516;-74
2022/05/25 09:18:33;;;;;;;21.50;12.35;;;;;;;;;;5083313;28;20330;-75
2022/05/25 09:21:02;;;;;;;15.55;11.50;;;;;;;;;;5085874;28;20167;-74
2022/05/25 09:23:28;;;;;;;16.55;11.60;;;;;;;;;;5079453;28;20071;-74
2022/05/25 09:25:55;;;;;;;17.60;11.13;;;;;;;;;;5065658;28;20051;-74
2022/05/25 09:28:22;;;;;;;18.00;11.30;;;;;;;;;;5081138;28;20619;-74
2022/05/25 09:30:51;;;;;;;15.73;11.27;;;;;;;;;;5065516;28;20495;-75
2022/05/25 09:33:31;;;;;;;14.68;10.27;;;;;;;;;;5062193;28;20101;-73
2022/05/25 09:35:59;;;;;;;12.27;9.18;;;;;;;;;;5066065;28;20572;-74
2022/05/25 09:38:35;;;;;;;11.65;8.77;;;;;;;;;;5062250;28;20060;-74
2022/05/25 09:41:04;;;;;;;10.98;6.88;;;;;;;;;;5064838;28;20053;-75
2022/05/25 09:43:30;;;;;;;11.93;7.13;;;;;;;;;;5047364;28;20626;-75
2022/05/25 09:46:05;;;;;;;9.75;6.20;;;;;;;;;;5072179;28;20059;-75
2022/05/25 09:48:32;;;;;;;10.20;6.18;;;;;;;;;;5045929;28;20076;-74
2022/05/25 09:51:17;;;;;;;7.82;5.28;;;;;;;;;;5046343;28;20409;-75
2022/05/25 09:53:48;;;;;;;11.70;4.60;;;;;;;;;;5085683;28;20522;-75
2022/05/25 09:56:21;;;;;;;7.32;4.10;;;;;;;;;;5066190;28;20055;-75
2022/05/25 09:58:49;;;;;;;9.48;4.13;;;;;;;;;;5083551;28;20052;-75
2022/05/25 10:01:23;;;;;;;8.32;3.47;;;;;;;;;;5085721;28;20092;-75
2022/05/25 10:03:50;;;;;;;6.18;3.60;;;;;;;;;;5080776;28;20056;-75
2022/05/25 10:06:20;;;;;;;7.65;3.78;;;;;;;;;;5074878;28;20061;-74
2022/05/25 10:08:50;;;;;;;6.32;3.00;;;;;;;;;;5070509;28;20060;-75
2022/05/25 10:11:29;;;;;;;5.82;3.38;;;;;;;;;;5054613;28;20057;-75
2022/05/25 10:13:57;;;;;;;5.85;2.75;;;;;;;;;;5067019;28;20098;-75
2022/05/25 10:16:28;;;;;;;7.63;2.70;;;;;;;;;;5058513;28;20140;-74
2022/05/25 10:18:55;;;;;;;7.32;2.70;;;;;;;;;;5076987;28;20056;-73
2022/05/25 10:21:29;;;;;;;8.57;3.05;;;;;;;;;;5067511;28;20118;-75
2022/05/25 10:23:57;;;;;;;5.35;2.55;;;;;;;;;;5075298;28;20452;-75
2022/05/25 10:26:35;;;;;;;5.63;1.90;;;;;;;;;;5068459;28;20057;-75
2022/05/25 10:29:06;;;;;;;8.57;1.90;;;;;;;;;;5076386;28;20075;-74
2022/05/25 10:37:16;;;;;;;5.60;1.63;;;;;;;;;;5070610;28;20543;-74
2022/05/25 10:39:45;;;;;;;4.22;1.45;;;;;;;;;;5079665;28;20053;-73
2022/05/25 10:42:18;;;;;;;4.82;1.70;;;;;;;;;;5071566;28;20513;-74
2022/05/25 10:44:50;;;;;;;5.15;1.40;;;;;;;;;;5072022;28;20505;-75
2022/05/25 10:47:36;;;;;;;4.07;1.52;;;;;;;;;;5077686;28;20126;-74
2022/05/25 10:50:05;;;;;;;4.60;1.30;;;;;;;;;;5055673;28;20053;-75
2022/05/25 10:52:40;;;;;;;3.13;1.02;;;;;;;;;;5057959;28;20059;-74
2022/05/25 10:55:07;;;;;;;6.65;1.10;;;;;;;;;;5072180;28;20132;-75
2022/05/25 10:57:52;;;;;;;4.75;1.40;;;;;;;;;;5087548;28;20059;-74
2022/05/25 11:00:32;;;;;;;5.07;1.40;;;;;;;;;;5055250;28;20518;-76
2022/05/25 11:03:15;;;;;;;4.50;1.20;;;;;;;;;;5052560;28;20103;-74
2022/05/25 11:05:41;;;;;;;5.75;1.10;;;;;;;;;;5067634;28;20053;-74
2022/05/25 11:08:14;;;;;;;4.45;1.00;;;;;;;;;;5066760;28;20104;-75
2022/05/25 11:10:45;;;;;;;5.03;1.48;;;;;;;;;;5068136;28;20517;-74
2022/05/25 11:13:14;;;;;;;3.88;0.90;;;;;;;;;;5068567;28;20505;-75
2022/05/25 11:15:59;;;;;;;4.53;1.10;;;;;;;;;;5043127;28;20161;-75
2022/05/25 11:18:38;;;;;;;4.40;1.38;;;;;;;;;;5066942;28;20480;-75
2022/05/25 11:21:10;;;;;;;4.75;1.30;;;;;;;;;;5069952;28;20056;-75
2022/05/25 11:23:39;;;;;;;4.60;1.30;;;;;;;;;;5067841;28;20072;-75
2022/05/25 11:26:06;;;;;;;4.00;1.25;;;;;;;;;;5082065;28;20143;-74
2022/05/25 11:28:58;;;;;;;4.05;1.30;;;;;;;;;;5068085;28;20056;-76
2022/05/25 11:31:30;;;;;;;5.72;1.02;;;;;;;;;;5073590;28;20048;-75
2022/05/25 11:34:15;;;;;;;4.93;1.20;;;;;;;;;;5060763;28;20078;-76
2022/05/25 11:37:10;;;;;;;5.28;1.20;;;;;;;;;;5061644;28;20045;-76
2022/05/25 11:39:40;;;;;;;4.47;1.10;;;;;;;;;;5080323;28;20060;-75
2022/05/25 11:42:25;;;;;;;3.50;1.10;;;;;;;;;;5080634;28;20052;-75
2022/05/25 11:44:58;;;;;;;5.13;1.30;;;;;;;;;;5081592;28;20085;-76
2022/05/25 11:47:48;;;;;;;5.03;1.45;;;;;;;;;;5070107;28;20576;-75
2022/05/25 11:50:30;;;;;;;4.82;1.17;;;;;;;;;;5053446;28;20080;-76
2022/05/25 11:53:08;;;;;;;5.40;1.70;;;;;;;;;;5064350;28;20491;-76
2022/05/25 11:55:46;;;;;;;5.18;1.33;;;;;;;;;;5081264;28;20536;-76
2022/05/25 11:58:14;;;;;;;6.38;1.40;;;;;;;;;;5047644;28;20055;-75
2022/05/25 12:00:47;;;;;;;5.95;1.08;;;;;;;;;;5072190;28;20059;-76
2022/05/25 12:03:32;;;;;;;6.43;1.10;;;;;;;;;;5062292;28;20136;-77
2022/05/25 12:06:00;;;;;;;5.15;1.02;;;;;;;;;;5075231;28;20055;-76
2022/05/25 12:08:27;;;;;;;2.70;0.80;;;;;;;;;;5056678;28;20604;-77
2022/05/25 12:11:04;;;;;;;3.13;1.00;;;;;;;;;;5065078;28;20140;-77
2022/05/25 12:13:35;;;;;;;4.43;1.10;;;;;;;;;;5045760;28;20582;-76
2022/05/25 12:16:14;;;;;;;4.50;0.80;;;;;;;;;;5048310;28;20063;-77
2022/05/25 12:18:52;;;;;;;4.55;1.00;;;;;;;;;;5075770;28;20139;-76
2022/05/25 12:21:21;;;;;;;7.03;1.10;;;;;;;;;;5059947;28;20048;-76
2022/05/25 12:23:54;;;;;;;3.92;0.95;;;;;;;;;;5083284;28;20060;-77
2022/05/25 12:26:28;;;;;;;5.35;1.23;;;;;;;;;;5082413;28;20522;-77
2022/05/25 12:29:13;;;;;;;3.28;0.90;;;;;;;;;;5049784;28;20115;-76
2022/05/25 12:31:46;;;;;;;3.77;1.10;;;;;;;;;;5066336;28;20048;-77
2022/05/25 12:34:14;;;;;;;3.10;1.00;;;;;;;;;;5061921;28;20890;-77
2022/05/25 12:36:42;;;;;;;5.32;1.00;;;;;;;;;;5063493;28;20136;-77
2022/05/25 12:39:09;;;;;;;4.22;1.20;;;;;;;;;;5076757;28;20487;-77
2022/05/25 12:41:37;;;;;;;5.32;1.40;;;;;;;;;;5056043;28;20079;-77
2022/05/25 12:50:23;;;;;;;6.20;1.42;;;;;;;;;;5075302;28;20059;-78
2022/05/25 12:52:50;;;;;;;3.95;1.40;;;;;;;;;;5037896;28;20245;-76
2022/05/25 12:55:22;;;;;;;3.08;1.15;;;;;;;;;;5072697;28;20131;-77
2022/05/25 12:57:51;;;;;;;5.95;1.15;;;;;;;;;;5060595;28;20067;-77
2022/05/25 13:00:21;;;;;;;4.88;1.20;;;;;;;;;;5051594;28;20068;-77
2022/05/25 13:02:47;;;;;;;5.40;1.13;;;;;;;;;;5069087;28;20465;-77
2022/05/25 13:05:33;;;;;;;3.95;1.25;;;;;;;;;;5078849;28;20915;-77
2022/05/25 13:07:59;;;;;;;7.45;1.40;;;;;;;;;;5080009;28;20057;-77
2022/05/25 13:10:28;;;;;;;4.85;1.20;;;;;;;;;;5062584;28;20076;-77
2022/05/25 13:12:56;;;;;;;4.90;1.10;;;;;;;;;;5070779;28;20181;-77
2022/05/25 13:15:22;;;;;;;5.88;1.20;;;;;;;;;;5083568;28;20080;-77
2022/05/25 13:17:56;;;;;;;7.85;1.60;;;;;;;;;;5068246;28;20094;-77
2022/05/25 13:20:26;;;;;;;4.63;1.17;;;;;;;;;;5060351;28;20052;-77
2022/05/25 13:22:54;;;;;;;7.07;1.50;;;;;;;;;;5054481;28;20047;-77
2022/05/25 13:25:25;;;;;;;6.25;1.50;;;;;;;;;;5056673;28;20061;-77
2022/05/25 13:28:13;;;;;;;8.18;2.00;;;;;;;;;;5067279;28;20143;-77
2022/05/25 13:30:39;;;;;;;5.20;1.75;;;;;;;;;;5066736;28;20052;-78
2022/05/25 13:33:27;;;;;;;8.70;1.90;;;;;;;;;;5080838;28;20153;-76
2022/05/25 13:35:53;;;;;;;8.07;1.90;;;;;;;;;;5066974;28;20140;-78
2022/05/25 13:38:22;;;;;;;5.43;1.65;;;;;;;;;;5057144;28;20143;-76
2022/05/25 13:40:55;;;;;;;8.13;1.70;;;;;;;;;;5058530;28;20857;-78
2022/05/25 13:43:46;;;;;;;4.95;1.98;;;;;;;;;;5054409;28;20136;-78
2022/05/25 13:46:33;;;;;;;9.15;2.22;;;;;;;;;;5058220;28;20147;-77
2022/05/25 13:48:59;;;;;;;6.60;1.75;;;;;;;;;;5039683;28;20550;-78
2022/05/25 13:51:26;;;;;;;4.95;1.42;;;;;;;;;;5063273;28;20156;-76
2022/05/25 13:53:53;;;;;;;5.55;1.90;;;;;;;;;;5071003;28;20588;-77
2022/05/25 13:56:22;;;;;;;7.53;2.40;;;;;;;;;;5058899;28;20059;-77
2022/05/25 13:58:50;;;;;;;7.90;2.10;;;;;;;;;;5051753;28;20052;-77
2022/05/25 14:01:21;;;;;;;4.40;1.98;;;;;;;;;;5054213;28;20051;-77
2022/05/25 14:04:14;;;;;;;6.28;2.17;;;;;;;;;;5054441;28;20158;-77
2022/05/25 14:06:43;;;;;;;6.47;2.10;;;;;;;;;;5058409;28;20162;-77
2022/05/25 14:11:55;;;;;;;6.10;1.95;;;;;;;;;;5075460;28;20049;-78
2022/05/25 14:14:27;;;;;;;7.88;1.98;;;;;;;;;;5065230;28;20053;-77
2022/05/25 14:16:58;;;;;;;5.03;1.70;;;;;;;;;;5072911;28;20056;-77
2022/05/25 14:19:29;;;;;;;5.95;1.88;;;;;;;;;;5085708;28;20059;-77
2022/05/25 14:21:59;;;;;;;6.35;1.80;;;;;;;;;;5081902;28;20060;-77
2022/05/25 14:24:33;;;;;;;6.03;1.63;;;;;;;;;;5077272;28;20080;-77
2022/05/25 14:27:20;;;;;;;7.00;1.60;;;;;;;;;;5065021;28;20748;-77
2022/05/25 14:29:47;;;;;;;3.60;1.60;;;;;;;;;;5040426;28;20083;-78
2022/05/25 14:32:15;;;;;;;8.30;1.75;;;;;;;;;;5080513;28;20084;-77
2022/05/25 14:34:43;;;;;;;6.30;1.40;;;;;;;;;;5059249;28;20040;-78
2022/05/25 14:37:10;;;;;;;9.45;1.75;;;;;;;;;;5065169;28;20049;-78
2022/05/25 14:39:39;;;;;;;7.40;1.83;;;;;;;;;;5062808;28;20056;-78
2022/05/25 14:42:08;;;;;;;9.73;1.70;;;;;;;;;;5082763;28;20053;-78
2022/05/25 14:44:54;;;;;;;11.73;1.50;;;;;;;;;;5075962;28;20037;-78
2022/05/25 14:47:28;;;;;;;10.30;1.40;;;;;;;;;;5084009;28;20067;-78
2022/05/25 14:49:57;;;;;;;4.60;1.20;;;;;;;;;;5065856;28;21845;-78
2022/05/25 14:52:26;;;;;;;5.57;1.15;;;;;;;;;;5062652;28;20127;-78
2022/05/25 14:54:59;;;;;;;6.88;1.40;;;;;;;;;;5063219;28;20060;-78
2022/05/25 14:57:25;;;;;;;8.57;1.48;;;;;;;;;;5066879;28;20087;-77
2022/05/25 14:59:54;;;;;;;7.47;1.48;;;;;;;;;;5078843;28;20057;-78
2022/05/25 15:02:37;;;;;;;6.07;1.38;;;;;;;;;;5066407;28;20302;-78
2022/05/25 15:05:24;;;;;;;6.65;1.60;;;;;;;;;;5068537;28;20055;-78
2022/05/25 15:07:52;;;;;;;5.47;1.10;;;;;;;;;;5061569;28;20052;-78
2022/05/25 15:10:19;;;;;;;5.95;1.20;;;;;;;;;;5059299;28;21123;-78
2022/05/25 15:12:45;;;;;;;10.60;1.23;;;;;;;;;;5078942;28;20549;-77
2022/05/25 15:18:38;;;;;;;8.75;1.48;;;;;;;;;;5079067;28;20057;-77
2022/05/25 15:21:11;;;;;;;7.97;1.65;;;;;;;;;;5058759;28;20528;-78
2022/05/25 15:24:01;;;;;;;8.02;1.30;;;;;;;;;;5061535;28;20048;-78
2022/05/25 15:26:38;;;;;;;4.28;1.10;;;;;;;;;;5068042;28;20057;-78
2022/05/25 15:29:14;;;;;;;8.85;1.25;;;;;;;;;;5075402;28;20170;-78